sensor_id;sensor_type;location;lat;lon;timestamp;P1;durP1;ratioP1;P2;durP2;ratioP2
80746;SDS011;75521;50.218;14.322;2024-01-30T00:02:12;46.63;;;17.95;;
80746;SDS011;75521;50.218;14.322;2024-01-30T00:04:38;96.35;;;40.00;;
80746;SDS011;75521;50.218;14.322;2024-01-30T00:07:03;57.78;;;23.67;;
80746;SDS011;75521;50.218;14.322;2024-01-30T00:09:29;45.03;;;18.17;;
80746;SDS011;75521;50.218;14.322;2024-01-30T00:11:54;51.28;;;18.95;;
80746;SDS011;75521;50.218;14.322;2024-01-30T00:14:19;103.72;;;28.20;;
80746;SDS011;75521;50.218;14.322;2024-01-30T00:16:45;63.92;;;20.08;;
80746;SDS011;75521;50.218;14.322;2024-01-30T00:19:10;46.42;;;17.73;;
80746;SDS011;75521;50.218;14.322;2024-01-30T00:21:36;46.53;;;16.90;;
80746;SDS011;75521;50.218;14.322;2024-01-30T00:24:02;57.50;;;24.17;;
80746;SDS011;75521;50.218;14.322;2024-01-30T00:26:27;54.40;;;21.95;;
80746;SDS011;75521;50.218;14.322;2024-01-30T00:28:53;41.53;;;15.20;;
80746;SDS011;75521;50.218;14.322;2024-01-30T00:31:18;39.25;;;15.30;;
80746;SDS011;75521;50.218;14.322;2024-01-30T00:33:44;37.67;;;15.82;;
80746;SDS011;75521;50.218;14.322;2024-01-30T00:36:09;44.15;;;16.52;;
80746;SDS011;75521;50.218;14.322;2024-01-30T00:38:35;88.05;;;19.35;;
80746;SDS011;75521;50.218;14.322;2024-01-30T00:41:01;48.22;;;15.93;;
80746;SDS011;75521;50.218;14.322;2024-01-30T00:43:29;57.53;;;16.33;;
80746;SDS011;75521;50.218;14.322;2024-01-30T00:45:56;42.53;;;17.33;;
80746;SDS011;75521;50.218;14.322;2024-01-30T00:48:22;54.17;;;20.65;;
80746;SDS011;75521;50.218;14.322;2024-01-30T00:50:47;52.70;;;20.92;;
80746;SDS011;75521;50.218;14.322;2024-01-30T00:53:12;45.38;;;18.23;;
80746;SDS011;75521;50.218;14.322;2024-01-30T00:55:38;46.45;;;16.63;;
80746;SDS011;75521;50.218;14.322;2024-01-30T00:58:03;44.50;;;16.02;;
80746;SDS011;75521;50.218;14.322;2024-01-30T01:00:29;37.03;;;16.10;;
80746;SDS011;75521;50.218;14.322;2024-01-30T01:02:55;43.10;;;17.25;;
80746;SDS011;75521;50.218;14.322;2024-01-30T01:05:21;43.70;;;15.73;;
80746;SDS011;75521;50.218;14.322;2024-01-30T01:07:46;38.28;;;15.93;;
80746;SDS011;75521;50.218;14.322;2024-01-30T01:10:15;41.67;;;16.23;;
80746;SDS011;75521;50.218;14.322;2024-01-30T01:12:42;31.88;;;14.95;;
80746;SDS011;75521;50.218;14.322;2024-01-30T01:15:07;46.42;;;17.55;;
80746;SDS011;75521;50.218;14.322;2024-01-30T01:17:36;37.50;;;14.40;;
80746;SDS011;75521;50.218;14.322;2024-01-30T01:20:03;49.03;;;15.38;;
80746;SDS011;75521;50.218;14.322;2024-01-30T01:22:30;29.17;;;14.02;;
80746;SDS011;75521;50.218;14.322;2024-01-30T01:24:56;42.80;;;16.58;;
80746;SDS011;75521;50.218;14.322;2024-01-30T01:27:21;38.05;;;16.90;;
80746;SDS011;75521;50.218;14.322;2024-01-30T01:29:46;37.55;;;15.82;;
80746;SDS011;75521;50.218;14.322;2024-01-30T01:32:12;37.35;;;15.32;;
80746;SDS011;75521;50.218;14.322;2024-01-30T01:34:37;41.72;;;18.75;;
80746;SDS011;75521;50.218;14.322;2024-01-30T01:37:02;47.83;;;19.52;;
80746;SDS011;75521;50.218;14.322;2024-01-30T01:39:28;37.47;;;15.82;;
80746;SDS011;75521;50.218;14.322;2024-01-30T01:41:53;40.17;;;17.20;;
80746;SDS011;75521;50.218;14.322;2024-01-30T01:44:19;36.30;;;15.00;;
80746;SDS011;75521;50.218;14.322;2024-01-30T01:46:44;34.45;;;14.10;;
80746;SDS011;75521;50.218;14.322;2024-01-30T01:49:10;52.30;;;19.38;;
80746;SDS011;75521;50.218;14.322;2024-01-30T01:51:36;34.67;;;14.38;;
80746;SDS011;75521;50.218;14.322;2024-01-30T01:54:03;34.92;;;15.05;;
80746;SDS011;75521;50.218;14.322;2024-01-30T01:56:30;40.85;;;16.92;;
80746;SDS011;75521;50.218;14.322;2024-01-30T01:58:58;32.75;;;13.20;;
80746;SDS011;75521;50.218;14.322;2024-01-30T02:01:25;41.85;;;17.27;;
80746;SDS011;75521;50.218;14.322;2024-01-30T02:03:52;38.85;;;18.13;;
80746;SDS011;75521;50.218;14.322;2024-01-30T02:06:18;37.75;;;16.23;;
80746;SDS011;75521;50.218;14.322;2024-01-30T02:08:44;36.58;;;14.90;;
80746;SDS011;75521;50.218;14.322;2024-01-30T02:11:09;31.45;;;13.27;;
80746;SDS011;75521;50.218;14.322;2024-01-30T02:13:36;37.45;;;16.00;;
80746;SDS011;75521;50.218;14.322;2024-01-30T02:16:01;39.13;;;15.52;;
80746;SDS011;75521;50.218;14.322;2024-01-30T02:18:27;55.75;;;23.38;;
80746;SDS011;75521;50.218;14.322;2024-01-30T02:20:53;37.00;;;15.88;;
80746;SDS011;75521;50.218;14.322;2024-01-30T02:23:21;36.53;;;15.60;;
80746;SDS011;75521;50.218;14.322;2024-01-30T02:25:49;36.65;;;15.10;;
80746;SDS011;75521;50.218;14.322;2024-01-30T02:28:14;38.45;;;17.33;;
80746;SDS011;75521;50.218;14.322;2024-01-30T02:30:42;29.77;;;13.63;;
80746;SDS011;75521;50.218;14.322;2024-01-30T02:33:08;40.00;;;15.27;;
80746;SDS011;75521;50.218;14.322;2024-01-30T02:35:33;44.05;;;17.40;;
80746;SDS011;75521;50.218;14.322;2024-01-30T02:37:59;48.50;;;17.75;;
80746;SDS011;75521;50.218;14.322;2024-01-30T02:40:24;44.45;;;18.67;;
80746;SDS011;75521;50.218;14.322;2024-01-30T02:42:50;54.95;;;22.10;;
80746;SDS011;75521;50.218;14.322;2024-01-30T02:45:16;38.47;;;15.30;;
80746;SDS011;75521;50.218;14.322;2024-01-30T02:47:41;41.47;;;14.60;;
80746;SDS011;75521;50.218;14.322;2024-01-30T02:50:07;31.10;;;15.40;;
80746;SDS011;75521;50.218;14.322;2024-01-30T02:52:32;61.83;;;20.60;;
80746;SDS011;75521;50.218;14.322;2024-01-30T02:54:58;70.95;;;23.80;;
80746;SDS011;75521;50.218;14.322;2024-01-30T02:57:23;88.35;;;25.80;;
80746;SDS011;75521;50.218;14.322;2024-01-30T02:59:49;151.05;;;45.55;;
80746;SDS011;75521;50.218;14.322;2024-01-30T03:02:14;56.35;;;19.45;;
80746;SDS011;75521;50.218;14.322;2024-01-30T03:04:43;33.35;;;14.57;;
80746;SDS011;75521;50.218;14.322;2024-01-30T03:07:08;34.28;;;13.00;;
80746;SDS011;75521;50.218;14.322;2024-01-30T03:09:34;42.92;;;15.52;;
80746;SDS011;75521;50.218;14.322;2024-01-30T03:11:59;33.50;;;15.18;;
80746;SDS011;75521;50.218;14.322;2024-01-30T03:14:24;50.22;;;21.33;;
80746;SDS011;75521;50.218;14.322;2024-01-30T03:16:50;61.30;;;26.95;;
80746;SDS011;75521;50.218;14.322;2024-01-30T03:19:15;46.38;;;18.33;;
80746;SDS011;75521;50.218;14.322;2024-01-30T03:21:41;51.08;;;21.50;;
80746;SDS011;75521;50.218;14.322;2024-01-30T03:24:06;44.13;;;19.38;;
80746;SDS011;75521;50.218;14.322;2024-01-30T03:26:31;47.03;;;20.05;;
80746;SDS011;75521;50.218;14.322;2024-01-30T03:28:57;39.13;;;15.98;;
80746;SDS011;75521;50.218;14.322;2024-01-30T03:31:22;34.10;;;14.50;;
80746;SDS011;75521;50.218;14.322;2024-01-30T03:33:47;40.42;;;15.77;;
80746;SDS011;75521;50.218;14.322;2024-01-30T03:36:14;45.75;;;18.25;;
80746;SDS011;75521;50.218;14.322;2024-01-30T03:38:40;34.47;;;16.52;;
80746;SDS011;75521;50.218;14.322;2024-01-30T03:41:07;37.90;;;15.48;;
80746;SDS011;75521;50.218;14.322;2024-01-30T03:43:34;34.83;;;15.05;;
80746;SDS011;75521;50.218;14.322;2024-01-30T03:45:59;34.97;;;13.63;;
80746;SDS011;75521;50.218;14.322;2024-01-30T03:48:26;39.22;;;15.55;;
80746;SDS011;75521;50.218;14.322;2024-01-30T03:50:51;31.23;;;13.45;;
80746;SDS011;75521;50.218;14.322;2024-01-30T03:53:17;36.63;;;14.20;;
80746;SDS011;75521;50.218;14.322;2024-01-30T03:55:42;38.47;;;14.27;;
80746;SDS011;75521;50.218;14.322;2024-01-30T03:58:07;36.33;;;15.40;;
80746;SDS011;75521;50.218;14.322;2024-01-30T04:00:33;39.85;;;14.85;;
80746;SDS011;75521;50.218;14.322;2024-01-30T04:02:58;37.83;;;16.08;;
80746;SDS011;75521;50.218;14.322;2024-01-30T04:05:23;40.83;;;14.98;;
80746;SDS011;75521;50.218;14.322;2024-01-30T04:07:48;40.67;;;17.75;;
80746;SDS011;75521;50.218;14.322;2024-01-30T04:10:14;44.10;;;16.38;;
80746;SDS011;75521;50.218;14.322;2024-01-30T04:12:39;38.47;;;14.73;;
80746;SDS011;75521;50.218;14.322;2024-01-30T04:15:05;40.53;;;16.02;;
80746;SDS011;75521;50.218;14.322;2024-01-30T04:17:30;45.17;;;19.40;;
80746;SDS011;75521;50.218;14.322;2024-01-30T04:19:55;44.85;;;17.20;;
80746;SDS011;75521;50.218;14.322;2024-01-30T04:22:21;31.65;;;14.40;;
80746;SDS011;75521;50.218;14.322;2024-01-30T04:24:46;40.25;;;15.10;;
80746;SDS011;75521;50.218;14.322;2024-01-30T04:27:12;49.92;;;16.23;;
80746;SDS011;75521;50.218;14.322;2024-01-30T04:29:37;38.58;;;14.05;;
80746;SDS011;75521;50.218;14.322;2024-01-30T04:32:03;43.75;;;16.88;;
80746;SDS011;75521;50.218;14.322;2024-01-30T04:34:29;43.60;;;16.35;;
80746;SDS011;75521;50.218;14.322;2024-01-30T04:36:54;32.85;;;14.15;;
80746;SDS011;75521;50.218;14.322;2024-01-30T04:39:19;34.33;;;13.73;;
80746;SDS011;75521;50.218;14.322;2024-01-30T04:41:45;32.78;;;14.30;;
80746;SDS011;75521;50.218;14.322;2024-01-30T04:44:10;31.38;;;12.63;;
80746;SDS011;75521;50.218;14.322;2024-01-30T04:46:35;33.55;;;13.25;;
80746;SDS011;75521;50.218;14.322;2024-01-30T04:49:01;37.47;;;13.52;;
80746;SDS011;75521;50.218;14.322;2024-01-30T04:51:26;34.30;;;15.50;;
80746;SDS011;75521;50.218;14.322;2024-01-30T04:53:51;40.38;;;18.80;;
80746;SDS011;75521;50.218;14.322;2024-01-30T04:56:17;36.95;;;15.00;;
80746;SDS011;75521;50.218;14.322;2024-01-30T04:58:42;29.63;;;12.95;;
80746;SDS011;75521;50.218;14.322;2024-01-30T05:01:08;33.88;;;15.63;;
80746;SDS011;75521;50.218;14.322;2024-01-30T05:03:33;33.55;;;13.57;;
80746;SDS011;75521;50.218;14.322;2024-01-30T05:05:59;35.95;;;14.07;;
80746;SDS011;75521;50.218;14.322;2024-01-30T05:08:25;34.60;;;13.40;;
80746;SDS011;75521;50.218;14.322;2024-01-30T05:10:50;39.97;;;15.57;;
80746;SDS011;75521;50.218;14.322;2024-01-30T05:13:15;36.47;;;13.70;;
80746;SDS011;75521;50.218;14.322;2024-01-30T05:15:41;46.35;;;15.13;;
80746;SDS011;75521;50.218;14.322;2024-01-30T05:18:06;35.67;;;13.68;;
80746;SDS011;75521;50.218;14.322;2024-01-30T05:20:31;33.33;;;13.02;;
80746;SDS011;75521;50.218;14.322;2024-01-30T05:22:57;41.45;;;14.88;;
80746;SDS011;75521;50.218;14.322;2024-01-30T05:25:22;34.55;;;13.63;;
80746;SDS011;75521;50.218;14.322;2024-01-30T05:27:48;36.20;;;14.57;;
80746;SDS011;75521;50.218;14.322;2024-01-30T05:30:14;58.30;;;15.23;;
80746;SDS011;75521;50.218;14.322;2024-01-30T05:32:39;39.25;;;13.50;;
80746;SDS011;75521;50.218;14.322;2024-01-30T05:35:04;42.13;;;14.48;;
80746;SDS011;75521;50.218;14.322;2024-01-30T05:37:30;33.65;;;13.27;;
80746;SDS011;75521;50.218;14.322;2024-01-30T05:39:55;36.10;;;14.52;;
80746;SDS011;75521;50.218;14.322;2024-01-30T05:42:21;41.03;;;14.55;;
80746;SDS011;75521;50.218;14.322;2024-01-30T05:44:46;50.78;;;15.07;;
80746;SDS011;75521;50.218;14.322;2024-01-30T05:47:11;30.50;;;12.55;;
80746;SDS011;75521;50.218;14.322;2024-01-30T05:49:37;45.42;;;16.98;;
80746;SDS011;75521;50.218;14.322;2024-01-30T05:54:29;36.45;;;14.10;;
80746;SDS011;75521;50.218;14.322;2024-01-30T05:56:54;49.58;;;14.23;;
80746;SDS011;75521;50.218;14.322;2024-01-30T05:59:20;34.80;;;13.38;;
80746;SDS011;75521;50.218;14.322;2024-01-30T06:01:46;37.92;;;12.93;;
80746;SDS011;75521;50.218;14.322;2024-01-30T06:06:37;85.17;;;25.20;;
80746;SDS011;75521;50.218;14.322;2024-01-30T06:09:02;52.40;;;18.52;;
80746;SDS011;75521;50.218;14.322;2024-01-30T06:11:28;36.67;;;14.82;;
80746;SDS011;75521;50.218;14.322;2024-01-30T06:13:53;28.42;;;12.15;;
80746;SDS011;75521;50.218;14.322;2024-01-30T06:16:18;36.00;;;14.35;;
80746;SDS011;75521;50.218;14.322;2024-01-30T06:18:46;61.38;;;13.77;;
80746;SDS011;75521;50.218;14.322;2024-01-30T06:21:12;39.75;;;16.15;;
80746;SDS011;75521;50.218;14.322;2024-01-30T06:23:38;65.35;;;15.98;;
80746;SDS011;75521;50.218;14.322;2024-01-30T06:26:03;66.07;;;15.55;;
80746;SDS011;75521;50.218;14.322;2024-01-30T06:28:30;46.85;;;15.32;;
80746;SDS011;75521;50.218;14.322;2024-01-30T06:31:09;59.08;;;18.73;;
80746;SDS011;75521;50.218;14.322;2024-01-30T06:33:35;42.83;;;17.50;;
80746;SDS011;75521;50.218;14.322;2024-01-30T06:36:00;46.85;;;16.77;;
80746;SDS011;75521;50.218;14.322;2024-01-30T06:38:25;48.60;;;16.05;;
80746;SDS011;75521;50.218;14.322;2024-01-30T06:40:51;42.38;;;13.60;;
80746;SDS011;75521;50.218;14.322;2024-01-30T06:43:16;37.45;;;15.73;;
80746;SDS011;75521;50.218;14.322;2024-01-30T06:45:42;42.33;;;15.95;;
80746;SDS011;75521;50.218;14.322;2024-01-30T06:48:07;44.13;;;15.88;;
80746;SDS011;75521;50.218;14.322;2024-01-30T06:50:33;35.90;;;14.15;;
80746;SDS011;75521;50.218;14.322;2024-01-30T06:52:59;53.85;;;18.90;;
80746;SDS011;75521;50.218;14.322;2024-01-30T06:55:24;39.30;;;13.48;;
80746;SDS011;75521;50.218;14.322;2024-01-30T06:57:49;41.97;;;18.65;;
80746;SDS011;75521;50.218;14.322;2024-01-30T07:00:15;39.13;;;17.13;;
80746;SDS011;75521;50.218;14.322;2024-01-30T07:02:41;43.17;;;18.15;;
80746;SDS011;75521;50.218;14.322;2024-01-30T07:05:06;46.70;;;16.90;;
80746;SDS011;75521;50.218;14.322;2024-01-30T07:07:32;48.90;;;17.40;;
80746;SDS011;75521;50.218;14.322;2024-01-30T07:09:58;55.08;;;18.92;;
80746;SDS011;75521;50.218;14.322;2024-01-30T07:12:23;42.17;;;18.15;;
80746;SDS011;75521;50.218;14.322;2024-01-30T07:14:50;36.72;;;14.18;;
80746;SDS011;75521;50.218;14.322;2024-01-30T07:17:16;39.80;;;13.90;;
80746;SDS011;75521;50.218;14.322;2024-01-30T07:19:41;42.53;;;19.15;;
80746;SDS011;75521;50.218;14.322;2024-01-30T07:22:07;40.05;;;18.88;;
80746;SDS011;75521;50.218;14.322;2024-01-30T07:24:33;56.63;;;24.77;;
80746;SDS011;75521;50.218;14.322;2024-01-30T07:26:58;60.67;;;22.63;;
80746;SDS011;75521;50.218;14.322;2024-01-30T07:29:23;75.32;;;31.42;;
80746;SDS011;75521;50.218;14.322;2024-01-30T07:31:49;57.88;;;26.13;;
80746;SDS011;75521;50.218;14.322;2024-01-30T07:34:14;65.07;;;29.48;;
80746;SDS011;75521;50.218;14.322;2024-01-30T07:36:39;40.55;;;17.85;;
80746;SDS011;75521;50.218;14.322;2024-01-30T07:39:05;35.20;;;14.55;;
80746;SDS011;75521;50.218;14.322;2024-01-30T07:41:30;34.72;;;14.13;;
80746;SDS011;75521;50.218;14.322;2024-01-30T07:43:55;45.03;;;17.52;;
80746;SDS011;75521;50.218;14.322;2024-01-30T07:46:21;43.10;;;16.38;;
80746;SDS011;75521;50.218;14.322;2024-01-30T07:48:46;52.55;;;21.02;;
80746;SDS011;75521;50.218;14.322;2024-01-30T07:51:11;48.97;;;15.63;;
80746;SDS011;75521;50.218;14.322;2024-01-30T07:53:37;43.10;;;16.58;;
80746;SDS011;75521;50.218;14.322;2024-01-30T07:56:02;44.75;;;19.48;;
80746;SDS011;75521;50.218;14.322;2024-01-30T07:58:28;48.90;;;19.20;;
80746;SDS011;75521;50.218;14.322;2024-01-30T08:00:53;52.72;;;17.85;;
80746;SDS011;75521;50.218;14.322;2024-01-30T08:03:18;45.78;;;16.50;;
80746;SDS011;75521;50.218;14.322;2024-01-30T08:05:44;45.42;;;18.10;;
80746;SDS011;75521;50.218;14.322;2024-01-30T08:10:36;45.03;;;19.43;;
80746;SDS011;75521;50.218;14.322;2024-01-30T08:13:01;53.42;;;24.27;;
80746;SDS011;75521;50.218;14.322;2024-01-30T08:15:27;40.45;;;20.75;;
80746;SDS011;75521;50.218;14.322;2024-01-30T08:17:52;51.15;;;20.70;;
80746;SDS011;75521;50.218;14.322;2024-01-30T08:20:23;44.33;;;18.60;;
80746;SDS011;75521;50.218;14.322;2024-01-30T08:22:49;50.25;;;19.17;;
80746;SDS011;75521;50.218;14.322;2024-01-30T08:25:14;45.92;;;15.93;;
80746;SDS011;75521;50.218;14.322;2024-01-30T08:27:39;46.35;;;18.30;;
80746;SDS011;75521;50.218;14.322;2024-01-30T08:30:06;66.30;;;23.55;;
80746;SDS011;75521;50.218;14.322;2024-01-30T08:32:32;62.70;;;25.17;;
80746;SDS011;75521;50.218;14.322;2024-01-30T08:34:57;74.63;;;28.27;;
80746;SDS011;75521;50.218;14.322;2024-01-30T08:37:23;53.20;;;20.42;;
80746;SDS011;75521;50.218;14.322;2024-01-30T08:39:48;57.95;;;27.48;;
80746;SDS011;75521;50.218;14.322;2024-01-30T08:42:14;102.30;;;42.00;;
80746;SDS011;75521;50.218;14.322;2024-01-30T08:44:39;66.38;;;29.50;;
80746;SDS011;75521;50.218;14.322;2024-01-30T08:47:05;56.15;;;22.75;;
80746;SDS011;75521;50.218;14.322;2024-01-30T08:49:30;43.40;;;17.88;;
80746;SDS011;75521;50.218;14.322;2024-01-30T08:51:56;37.33;;;15.82;;
80746;SDS011;75521;50.218;14.322;2024-01-30T08:54:22;32.92;;;13.98;;
80746;SDS011;75521;50.218;14.322;2024-01-30T08:59:14;31.03;;;12.80;;
80746;SDS011;75521;50.218;14.322;2024-01-30T09:01:39;29.75;;;14.13;;
80746;SDS011;75521;50.218;14.322;2024-01-30T09:04:04;36.97;;;14.63;;
80746;SDS011;75521;50.218;14.322;2024-01-30T09:06:30;35.03;;;16.70;;
80746;SDS011;75521;50.218;14.322;2024-01-30T09:08:55;36.75;;;14.45;;
80746;SDS011;75521;50.218;14.322;2024-01-30T09:11:22;31.73;;;14.40;;
80746;SDS011;75521;50.218;14.322;2024-01-30T09:13:48;33.35;;;15.15;;
80746;SDS011;75521;50.218;14.322;2024-01-30T09:16:13;33.88;;;13.07;;
80746;SDS011;75521;50.218;14.322;2024-01-30T09:18:40;30.95;;;13.48;;
80746;SDS011;75521;50.218;14.322;2024-01-30T09:21:06;33.90;;;13.55;;
80746;SDS011;75521;50.218;14.322;2024-01-30T09:23:31;30.40;;;13.45;;
80746;SDS011;75521;50.218;14.322;2024-01-30T09:25:57;27.75;;;13.70;;
80746;SDS011;75521;50.218;14.322;2024-01-30T09:28:22;31.70;;;14.27;;
80746;SDS011;75521;50.218;14.322;2024-01-30T09:30:48;31.65;;;14.43;;
80746;SDS011;75521;50.218;14.322;2024-01-30T09:33:13;28.30;;;13.20;;
80746;SDS011;75521;50.218;14.322;2024-01-30T09:35:39;42.53;;;24.13;;
80746;SDS011;75521;50.218;14.322;2024-01-30T09:38:04;34.08;;;17.67;;
80746;SDS011;75521;50.218;14.322;2024-01-30T09:40:30;42.45;;;23.10;;
80746;SDS011;75521;50.218;14.322;2024-01-30T09:42:55;48.40;;;24.15;;
80746;SDS011;75521;50.218;14.322;2024-01-30T09:45:23;56.20;;;28.98;;
80746;SDS011;75521;50.218;14.322;2024-01-30T09:47:50;37.53;;;18.50;;
80746;SDS011;75521;50.218;14.322;2024-01-30T09:50:15;37.67;;;19.48;;
80746;SDS011;75521;50.218;14.322;2024-01-30T09:52:42;43.38;;;19.05;;
80746;SDS011;75521;50.218;14.322;2024-01-30T09:55:09;47.42;;;24.50;;
80746;SDS011;75521;50.218;14.322;2024-01-30T09:57:35;45.38;;;24.52;;
80746;SDS011;75521;50.218;14.322;2024-01-30T10:00:01;57.92;;;27.98;;
80746;SDS011;75521;50.218;14.322;2024-01-30T10:02:27;42.97;;;19.48;;
80746;SDS011;75521;50.218;14.322;2024-01-30T10:04:53;44.17;;;19.27;;
80746;SDS011;75521;50.218;14.322;2024-01-30T10:07:18;42.05;;;22.48;;
80746;SDS011;75521;50.218;14.322;2024-01-30T10:09:44;115.13;;;48.05;;
80746;SDS011;75521;50.218;14.322;2024-01-30T10:12:10;156.13;;;70.93;;
80746;SDS011;75521;50.218;14.322;2024-01-30T10:14:38;67.55;;;30.80;;
80746;SDS011;75521;50.218;14.322;2024-01-30T10:17:04;55.35;;;24.45;;
80746;SDS011;75521;50.218;14.322;2024-01-30T10:19:30;36.58;;;17.13;;
80746;SDS011;75521;50.218;14.322;2024-01-30T10:21:56;43.00;;;19.58;;
80746;SDS011;75521;50.218;14.322;2024-01-30T10:24:24;40.45;;;19.52;;
80746;SDS011;75521;50.218;14.322;2024-01-30T10:26:50;35.72;;;16.42;;
80746;SDS011;75521;50.218;14.322;2024-01-30T10:29:16;36.28;;;17.00;;
80746;SDS011;75521;50.218;14.322;2024-01-30T10:31:42;36.90;;;16.85;;
80746;SDS011;75521;50.218;14.322;2024-01-30T10:34:07;38.13;;;16.88;;
80746;SDS011;75521;50.218;14.322;2024-01-30T10:36:33;46.20;;;22.20;;
80746;SDS011;75521;50.218;14.322;2024-01-30T10:39:06;37.58;;;18.55;;
80746;SDS011;75521;50.218;14.322;2024-01-30T10:41:32;35.75;;;18.13;;
80746;SDS011;75521;50.218;14.322;2024-01-30T10:44:13;45.22;;;20.98;;
80746;SDS011;75521;50.218;14.322;2024-01-30T10:46:46;42.08;;;18.35;;
80746;SDS011;75521;50.218;14.322;2024-01-30T10:49:21;36.63;;;18.63;;
80746;SDS011;75521;50.218;14.322;2024-01-30T10:54:14;62.58;;;31.23;;
80746;SDS011;75521;50.218;14.322;2024-01-30T10:56:41;56.80;;;26.10;;
80746;SDS011;75521;50.218;14.322;2024-01-30T10:59:07;40.63;;;18.30;;
80746;SDS011;75521;50.218;14.322;2024-01-30T11:01:34;41.25;;;18.30;;
80746;SDS011;75521;50.218;14.322;2024-01-30T11:04:00;39.63;;;18.10;;
80746;SDS011;75521;50.218;14.322;2024-01-30T11:06:25;44.75;;;20.15;;
80746;SDS011;75521;50.218;14.322;2024-01-30T11:09:03;43.85;;;20.23;;
80746;SDS011;75521;50.218;14.322;2024-01-30T11:14:26;44.63;;;19.25;;
80746;SDS011;75521;50.218;14.322;2024-01-30T11:16:52;42.40;;;19.83;;
80746;SDS011;75521;50.218;14.322;2024-01-30T11:19:24;43.15;;;20.15;;
80746;SDS011;75521;50.218;14.322;2024-01-30T11:21:51;42.88;;;20.08;;
80746;SDS011;75521;50.218;14.322;2024-01-30T11:24:19;79.82;;;44.95;;
80746;SDS011;75521;50.218;14.322;2024-01-30T11:26:47;59.88;;;32.75;;
80746;SDS011;75521;50.218;14.322;2024-01-30T11:29:14;86.78;;;41.78;;
80746;SDS011;75521;50.218;14.322;2024-01-30T11:31:40;76.57;;;36.00;;
80746;SDS011;75521;50.218;14.322;2024-01-30T11:34:17;54.72;;;26.88;;
80746;SDS011;75521;50.218;14.322;2024-01-30T11:36:43;49.30;;;22.50;;
80746;SDS011;75521;50.218;14.322;2024-01-30T11:39:15;46.58;;;23.02;;
80746;SDS011;75521;50.218;14.322;2024-01-30T11:41:42;40.45;;;18.60;;
80746;SDS011;75521;50.218;14.322;2024-01-30T11:44:10;37.40;;;17.30;;
80746;SDS011;75521;50.218;14.322;2024-01-30T11:46:36;38.88;;;19.48;;
80746;SDS011;75521;50.218;14.322;2024-01-30T11:49:01;40.58;;;20.65;;
80746;SDS011;75521;50.218;14.322;2024-01-30T11:51:27;41.97;;;19.70;;
80746;SDS011;75521;50.218;14.322;2024-01-30T11:53:53;35.80;;;16.83;;
80746;SDS011;75521;50.218;14.322;2024-01-30T11:56:18;41.75;;;18.65;;
80746;SDS011;75521;50.218;14.322;2024-01-30T11:58:43;42.33;;;20.35;;
80746;SDS011;75521;50.218;14.322;2024-01-30T12:01:10;39.20;;;18.85;;
80746;SDS011;75521;50.218;14.322;2024-01-30T12:03:36;37.08;;;17.85;;
80746;SDS011;75521;50.218;14.322;2024-01-30T12:06:02;39.05;;;20.40;;
80746;SDS011;75521;50.218;14.322;2024-01-30T12:08:28;53.20;;;23.40;;
80746;SDS011;75521;50.218;14.322;2024-01-30T12:10:57;44.95;;;19.85;;
80746;SDS011;75521;50.218;14.322;2024-01-30T12:13:23;38.95;;;19.25;;
80746;SDS011;75521;50.218;14.322;2024-01-30T12:15:50;38.38;;;19.52;;
80746;SDS011;75521;50.218;14.322;2024-01-30T12:18:18;44.08;;;19.30;;
80746;SDS011;75521;50.218;14.322;2024-01-30T12:20:44;36.88;;;17.77;;
80746;SDS011;75521;50.218;14.322;2024-01-30T12:23:09;41.88;;;21.13;;
80746;SDS011;75521;50.218;14.322;2024-01-30T12:25:37;40.22;;;20.83;;
80746;SDS011;75521;50.218;14.322;2024-01-30T12:28:03;40.40;;;19.25;;
80746;SDS011;75521;50.218;14.322;2024-01-30T12:30:29;31.63;;;16.17;;
80746;SDS011;75521;50.218;14.322;2024-01-30T12:32:54;35.28;;;17.60;;
80746;SDS011;75521;50.218;14.322;2024-01-30T12:35:20;38.22;;;19.38;;
80746;SDS011;75521;50.218;14.322;2024-01-30T12:37:47;35.30;;;17.98;;
80746;SDS011;75521;50.218;14.322;2024-01-30T12:40:14;37.85;;;16.30;;
80746;SDS011;75521;50.218;14.322;2024-01-30T12:42:40;35.13;;;17.92;;
80746;SDS011;75521;50.218;14.322;2024-01-30T12:45:07;39.05;;;18.40;;
80746;SDS011;75521;50.218;14.322;2024-01-30T12:47:33;43.90;;;18.08;;
80746;SDS011;75521;50.218;14.322;2024-01-30T12:49:58;37.05;;;19.10;;
80746;SDS011;75521;50.218;14.322;2024-01-30T12:52:24;40.97;;;20.60;;
80746;SDS011;75521;50.218;14.322;2024-01-30T12:54:50;44.78;;;20.73;;
80746;SDS011;75521;50.218;14.322;2024-01-30T12:57:16;37.63;;;19.80;;
80746;SDS011;75521;50.218;14.322;2024-01-30T12:59:42;37.38;;;21.17;;
80746;SDS011;75521;50.218;14.322;2024-01-30T13:02:14;38.85;;;19.73;;
80746;SDS011;75521;50.218;14.322;2024-01-30T13:04:40;35.25;;;20.05;;
80746;SDS011;75521;50.218;14.322;2024-01-30T13:07:06;35.17;;;18.30;;
80746;SDS011;75521;50.218;14.322;2024-01-30T13:09:31;35.35;;;17.60;;
80746;SDS011;75521;50.218;14.322;2024-01-30T13:11:57;38.28;;;19.50;;
80746;SDS011;75521;50.218;14.322;2024-01-30T13:14:23;33.33;;;18.35;;
80746;SDS011;75521;50.218;14.322;2024-01-30T13:16:49;30.80;;;15.95;;
80746;SDS011;75521;50.218;14.322;2024-01-30T13:19:14;35.80;;;17.55;;
80746;SDS011;75521;50.218;14.322;2024-01-30T13:21:41;37.22;;;17.58;;
80746;SDS011;75521;50.218;14.322;2024-01-30T13:24:06;39.95;;;18.27;;
80746;SDS011;75521;50.218;14.322;2024-01-30T13:26:32;40.65;;;19.52;;
80746;SDS011;75521;50.218;14.322;2024-01-30T13:28:58;37.47;;;18.95;;
80746;SDS011;75521;50.218;14.322;2024-01-30T13:31:23;40.58;;;19.77;;
80746;SDS011;75521;50.218;14.322;2024-01-30T13:33:48;38.65;;;19.75;;
80746;SDS011;75521;50.218;14.322;2024-01-30T13:36:14;40.60;;;18.95;;
80746;SDS011;75521;50.218;14.322;2024-01-30T13:38:39;40.00;;;19.65;;
80746;SDS011;75521;50.218;14.322;2024-01-30T13:41:05;43.15;;;20.13;;
80746;SDS011;75521;50.218;14.322;2024-01-30T13:43:30;39.80;;;18.52;;
80746;SDS011;75521;50.218;14.322;2024-01-30T13:45:55;38.20;;;18.83;;
80746;SDS011;75521;50.218;14.322;2024-01-30T13:48:21;37.45;;;17.92;;
80746;SDS011;75521;50.218;14.322;2024-01-30T13:50:46;42.15;;;19.30;;
80746;SDS011;75521;50.218;14.322;2024-01-30T13:53:12;36.92;;;18.27;;
80746;SDS011;75521;50.218;14.322;2024-01-30T13:55:38;43.53;;;19.58;;
80746;SDS011;75521;50.218;14.322;2024-01-30T13:58:04;38.25;;;20.42;;
80746;SDS011;75521;50.218;14.322;2024-01-30T14:00:30;39.72;;;18.92;;
80746;SDS011;75521;50.218;14.322;2024-01-30T14:02:55;34.67;;;18.80;;
80746;SDS011;75521;50.218;14.322;2024-01-30T14:05:22;39.10;;;19.25;;
80746;SDS011;75521;50.218;14.322;2024-01-30T14:07:47;44.28;;;20.45;;
80746;SDS011;75521;50.218;14.322;2024-01-30T14:10:13;38.17;;;20.17;;
80746;SDS011;75521;50.218;14.322;2024-01-30T14:12:39;41.40;;;21.63;;
80746;SDS011;75521;50.218;14.322;2024-01-30T14:15:04;36.60;;;18.83;;
80746;SDS011;75521;50.218;14.322;2024-01-30T14:17:31;40.58;;;20.40;;